Terminal Aerodrome Forecast
Issued by NWS

Home | Current Version | Previous Version | Text Only | Print | Product List | Glossary On
Versions: 1 2 3 4 5 6 7 8 9 10 11 12 13 14 15 16 17 18 19 20 21 22 23 24 25 26
000
FTUS45 KBOU 211730
TAFBJC
TAF
KBJC 211730Z 2118/2218 10006KT P6SM FEW110 SCT200
     FM212200 14010KT P6SM VCTS SCT080CB BKN120
     FM220200 17007KT P6SM FEW120 SCT220
     FM220700 24008KT P6SM FEW120 SCT220
     FM221400 22008KT P6SM SCT120 BKN220=

USA.gov is the U.S. government's official web portal to all federal, state and local government web resources and services.